Enter the Airport ICAO Code

Search by Airport or City

Current Weather

GCTS | Tenerife-South Airport (Reina Sofia Airport)

Tenerife, Canary Islands, Spain

Last Update 29 Minutes Ago

Sky with Few Clouds

Temperature of 23 ºC

Light to Moderate Winds from NorthEast

Temperature

23 ºC

Dew Point Temperature

19 ºC

Relative Humidity

78.33 %

Wind Direction

NorthEast (050º, Ranging from 010º to 090º)

Wind Velocity

13 km/h (07 kt)

Gusts

None

Visibility

Greater than 10 Kilometers

Sea Level Pressure

1020 hPa (Hectopascals)

Layers of Clouds

5% to 30% of Sky Covered from 762 mts (2500 ft) Above Ground Level.

METAR GCTS 202300Z 05007KT 010V090 9999 FEW025 23/19 Q1020 NOSIG

Weather Forecast

GCTS | Tenerife-South Airport (Reina Sofia Airport)

Tenerife, Canary Islands, Spain

Forecast valid for the next 22 Hours

From now on it is expected:

Sky with Few Clouds

Moderate Winds from NorthEast

In 10 to 12 hours it is expected the begining of:

Strong Winds from East

Maximum Temperature

30 ºC in 14 Hours

Minimum Temperature

24 ºC in 7 Hours

TAF GCTS 202000Z 2021/2121 05013KT 9999 FEW025 TX30/2113Z TN24/2106Z BECMG 2109/2111 07025KT